Airfield :
LOGIN :

Register | Disclaimer

   EN    FR    IT 

 










Legend :    VFR   Marginal VFR   IFR   Intensive IFR   Very Intensive IFR
Visi :
Ceiling :
>= 8 km
>= 3000ft
5 to 8 km
1000 to 3000 ft
1500m to 5 km
500 to 1000 ft
800 to 1500m
200 to 500 ft
< 800m
< 200 ft
Symbols :   Thunderstorms  Fog  Heavy snow  Heavy precipitations  Wind > 20 kt
SIGMETs :     Misc.  Thunderstorms  Icing  Turbulence  Mountain Waves  Volcanic Ashes







- Airport Elevation : 364 ft
- IATA code : FRA


EDDF - Frankfurt Int.

CURRENT METAR :
  • 160820Z 26006KT 9999 FEW014 BKN041 02/01 Q1008 R88/2///95 NOSIG

EXPIRED METARs :
  • 160750Z 26005KT 220V300 9999 FEW011 BKN041 02/01 Q1008 R88/2///95 NOSIG
  • 160720Z 24004KT 9999 BKN039 02/01 Q1007 R88/2///95 NOSIG
  • 160650Z 26004KT 210V290 9999 BKN039 02/01 Q1007 R88/2///95 NOSIG
  • 160620Z 28005KT 250V310 9999 BKN039 02/01 Q1006 R88/2///95 NOSIG
  • 160550Z 34006KT 9999 BKN041 02/01 Q1006 R88/2///95 NOSIG

TAF TAF EDDF
Valid from the 16 at 06:00 until the 17 at 12:00 UTC


160500Z 1606/1712 VRB03KT 9999 BKN030
TEMPO 1606/1712 SCT035
BECMG 1608/1610 26005KT
PROB30
TEMPO 1614/1621 4000 -SHRASN BKN020CB
PROB30
TEMPO 1621/1706 3000 -SHSNRA BKN015CB
No reported NOTAMs for that airfield.



MET'MAP, your aeronautical weather chart ! - Copyright ORBIFLY December 2007 - Disclaimer

ORBIFLY MET'MAP TEAM :

Programming & Development : Alexandra Zaïnal
Concept & Development : Baudouin d'Aumeries
Co-Development & Prog : Marc-Olivier Méhu
Technical & hardware support : Manuel Goepfert

Contact : metmap@orbifly.com




SOURCES & CREDITS :

   NOAA